Time,TemperatureF,DewpointF,PressureIn,WindDirection,WindDirectionDegrees,WindSpeedMPH,WindSpeedGustMPH,Humidity,HourlyPrecipIn,Conditions,Clouds,dailyrainin,SoftwareType,DateUTC
2013-10-31 00:00:00,40.5,39.7,29.68,West,273,4.0,4.0,97,0.00,,,-99.99,Weather View 32 v70,2013-10-31 05:00:00,
2013-10-31 00:10:00,40.6,39.9,29.68,WNW,298,0.0,4.0,97,0.00,,,-99.99,Weather View 32 v70,2013-10-31 05:10:00,
2013-10-31 00:20:00,40.6,39.9,29.68,SSE,158,0.0,4.0,97,0.00,,,-99.99,Weather View 32 v70,2013-10-31 05:20:00,
2013-10-31 00:25:00,40.5,39.7,29.68,SSE,159,0.0,4.0,97,0.00,,,-99.99,Weather View 32 v70,2013-10-31 05:25:00,
2013-10-31 00:35:00,40.6,39.9,29.68,SE,145,0.0,4.0,97,0.00,,,-99.99,Weather View 32 v70,2013-10-31 05:35:00,
2013-10-31 00:40:00,40.6,39.9,29.68,SE,146,4.0,5.0,97,0.00,,,-99.99,Weather View 32 v70,2013-10-31 05:40:00,
2013-10-31 00:45:00,40.6,39.9,29.65,SSE,158,4.0,5.0,97,0.00,,,-99.99,Weather View 32 v70,2013-10-31 05:45:00,
2013-10-31 00:55:00,40.6,39.9,29.65,South,190,4.0,5.0,97,0.00,,,-99.99,Weather View 32 v70,2013-10-31 05:55:00,
2013-10-31 01:00:00,40.6,39.9,29.65,South,185,0.0,5.0,97,0.00,,,-99.99,Weather View 32 v70,2013-10-31 06:00:00,
2013-10-31 01:10:00,40.6,39.9,29.65,SSE,157,3.0,5.0,97,0.00,,,-99.99,Weather View 32 v70,2013-10-31 06:10:00,
2013-10-31 01:15:00,40.6,39.9,29.62,SSE,153,0.0,5.0,97,0.00,,,-99.99,Weather View 32 v70,2013-10-31 06:15:00,
2013-10-31 01:25:00,40.6,39.9,29.62,SSE,162,3.0,5.0,97,0.00,,,-99.99,Weather View 32 v70,2013-10-31 06:25:00,
2013-10-31 01:30:00,40.6,39.9,29.65,SSE,162,0.0,5.0,97,0.00,,,-99.99,Weather View 32 v70,2013-10-31 06:30:00,
2013-10-31 01:35:00,40.6,39.9,29.65,SSE,162,0.0,5.0,97,0.00,,,-99.99,Weather View 32 v70,2013-10-31 06:35:00,
2013-10-31 01:40:00,40.6,39.9,29.65,SSE,162,3.0,5.0,97,0.00,,,-99.99,Weather View 32 v70,2013-10-31 06:40:00,
2013-10-31 01:45:00,40.6,39.9,29.62,SSE,162,3.0,5.0,97,0.00,,,-99.99,Weather View 32 v70,2013-10-31 06:45:00,
2013-10-31 01:50:00,40.6,39.9,29.62,SSE,162,3.0,5.0,97,0.00,,,-99.99,Weather View 32 v70,2013-10-31 06:50:00,
2013-10-31 02:00:00,40.6,39.9,29.62,SSE,159,3.0,5.0,97,0.00,,,-99.99,Weather View 32 v70,2013-10-31 07:00:00,
2013-10-31 02:05:00,40.6,39.9,29.62,SSE,160,0.0,5.0,97,0.00,,,-99.99,Weather View 32 v70,2013-10-31 07:05:00,
2013-10-31 02:15:00,40.8,40.0,29.62,SSE,159,3.0,5.0,97,0.00,,,-99.99,Weather View 32 v70,2013-10-31 07:15:00,
2013-10-31 02:20:00,40.8,40.0,29.62,SSE,162,3.0,5.0,97,0.00,,,-99.99,Weather View 32 v70,2013-10-31 07:20:00,
2013-10-31 02:26:00,40.8,40.3,29.62,SSE,162,3.0,5.0,98,0.00,,,-99.99,Weather View 32 v70,2013-10-31 07:26:00,
2013-10-31 02:35:00,40.8,40.3,29.62,SSE,162,0.0,5.0,98,0.00,,,-99.99,Weather View 32 v70,2013-10-31 07:35:00,
2013-10-31 02:40:00,40.8,40.3,29.62,SSE,164,0.0,5.0,98,0.00,,,-99.99,Weather View 32 v70,2013-10-31 07:40:00,
2013-10-31 02:45:00,40.8,40.3,29.62,SSE,164,0.0,5.0,98,0.00,,,-99.99,Weather View 32 v70,2013-10-31 07:45:00,
2013-10-31 02:50:00,40.8,40.3,29.62,SSE,164,0.0,5.0,98,0.00,,,-99.99,Weather View 32 v70,2013-10-31 07:50:00,
2013-10-31 03:00:00,40.8,40.3,29.62,SSE,164,0.0,5.0,98,0.00,,,-99.99,Weather View 32 v70,2013-10-31 08:00:00,
2013-10-31 03:05:00,40.8,40.3,29.62,South,169,0.0,5.0,98,0.00,,,-99.99,Weather View 32 v70,2013-10-31 08:05:00,
2013-10-31 03:10:00,40.8,40.3,29.62,SSE,168,3.0,5.0,98,0.00,,,-99.99,Weather View 32 v70,2013-10-31 08:10:00,
2013-10-31 03:20:00,40.6,40.1,29.62,SSE,168,0.0,5.0,98,0.00,,,-99.99,Weather View 32 v70,2013-10-31 08:20:00,
2013-10-31 03:27:00,40.6,40.1,29.62,SSE,168,0.0,5.0,98,0.00,,,-99.99,Weather View 32 v70,2013-10-31 08:27:00,
2013-10-31 03:35:00,40.6,40.1,29.59,SSE,163,2.0,5.0,98,0.00,,,-99.99,Weather View 32 v70,2013-10-31 08:35:00,
2013-10-31 03:40:00,40.6,40.1,29.59,SSE,163,2.0,5.0,98,0.00,,,-99.99,Weather View 32 v70,2013-10-31 08:40:00,
2013-10-31 03:45:00,40.6,40.1,29.59,SSE,160,3.0,5.0,98,0.00,,,-99.99,Weather View 32 v70,2013-10-31 08:45:00,
2013-10-31 03:55:00,40.8,40.3,29.59,SSE,160,0.0,5.0,98,0.00,,,-99.99,Weather View 32 v70,2013-10-31 08:55:00,
2013-10-31 04:00:00,40.8,40.3,29.59,SSE,160,0.0,5.0,98,0.00,,,-99.99,Weather View 32 v70,2013-10-31 09:00:00,
2013-10-31 04:05:00,40.6,40.1,29.59,SSE,160,3.0,5.0,98,0.00,,,-99.99,Weather View 32 v70,2013-10-31 09:05:00,
2013-10-31 04:15:00,40.6,40.1,29.59,NNW,335,0.0,5.0,98,0.00,,,-99.99,Weather View 32 v70,2013-10-31 09:15:00,
2013-10-31 04:20:00,40.6,40.1,29.59,NNW,334,0.0,5.0,98,0.00,,,-99.99,Weather View 32 v70,2013-10-31 09:20:00,
2013-10-31 04:27:00,40.6,40.1,29.59,WNW,302,4.0,5.0,98,0.00,,,-99.99,Weather View 32 v70,2013-10-31 09:27:00,
2013-10-31 04:35:00,40.6,40.1,29.59,WNW,289,0.0,5.0,98,0.00,,,-99.99,Weather View 32 v70,2013-10-31 09:35:00,
2013-10-31 04:40:00,40.5,39.9,29.59,WNW,289,0.0,5.0,98,0.00,,,-99.99,Weather View 32 v70,2013-10-31 09:40:00,
2013-10-31 04:45:00,40.5,39.9,29.56,WNW,297,0.0,5.0,98,0.00,,,-99.99,Weather View 32 v70,2013-10-31 09:45:00,
2013-10-31 04:50:00,40.5,39.9,29.56,WNW,294,3.0,5.0,98,0.00,,,-99.99,Weather View 32 v70,2013-10-31 09:50:00,
2013-10-31 04:55:00,40.5,39.9,29.56,WNW,297,3.0,5.0,98,0.00,,,-99.99,Weather View 32 v70,2013-10-31 09:55:00,
2013-10-31 05:00:00,40.5,39.9,29.56,WNW,292,3.0,5.0,98,0.00,,,-99.99,Weather View 32 v70,2013-10-31 10:00:00,
2013-10-31 05:10:00,40.5,39.9,29.56,WNW,293,2.0,5.0,98,0.00,,,-99.99,Weather View 32 v70,2013-10-31 10:10:00,
2013-10-31 05:15:00,40.5,39.9,29.56,WNW,289,0.0,5.0,98,0.00,,,-99.99,Weather View 32 v70,2013-10-31 10:15:00,
2013-10-31 05:25:00,40.3,39.8,29.56,WNW,289,0.0,5.0,98,0.00,,,-99.99,Weather View 32 v70,2013-10-31 10:25:00,
2013-10-31 05:30:00,40.3,39.8,29.56,South,175,0.0,5.0,98,0.00,,,-99.99,Weather View 32 v70,2013-10-31 10:30:00,
2013-10-31 05:35:00,40.5,39.9,29.56,SSW,199,3.0,5.0,98,0.00,,,-99.99,Weather View 32 v70,2013-10-31 10:35:00,
2013-10-31 05:40:00,40.5,39.9,29.56,SE,139,0.0,5.0,98,0.00,,,-99.99,Weather View 32 v70,2013-10-31 10:40:00,
2013-10-31 05:45:00,40.5,39.9,29.56,SE,139,0.0,5.0,98,0.00,,,-99.99,Weather View 32 v70,2013-10-31 10:45:00,
2013-10-31 05:50:00,40.5,39.9,29.56,SE,139,0.0,5.0,98,0.00,,,-99.99,Weather View 32 v70,2013-10-31 10:50:00,
2013-10-31 06:00:00,40.5,39.9,29.56,WNW,283,0.0,5.0,98,0.00,,,-99.99,Weather View 32 v70,2013-10-31 11:00:00,
2013-10-31 06:10:00,40.5,39.9,29.56,SSW,202,0.0,4.0,98,0.00,,,-99.99,Weather View 32 v70,2013-10-31 11:10:00,
2013-10-31 06:15:00,40.5,39.9,29.56,SSW,203,0.0,4.0,98,0.00,,,-99.99,Weather View 32 v70,2013-10-31 11:15:00,
2013-10-31 06:20:00,40.5,39.9,29.56,SSW,203,0.0,4.0,98,0.00,,,-99.99,Weather View 32 v70,2013-10-31 11:20:00,
2013-10-31 06:25:00,40.5,39.9,29.56,SSW,202,0.0,4.0,98,0.00,,,-99.99,Weather View 32 v70,2013-10-31 11:25:00,
2013-10-31 06:35:00,40.5,39.9,29.56,SSW,202,0.0,4.0,98,0.00,,,-99.99,Weather View 32 v70,2013-10-31 11:35:00,
2013-10-31 06:45:00,40.5,39.9,29.53,SSW,203,0.0,4.0,98,0.00,,,-99.99,Weather View 32 v70,2013-10-31 11:45:00,
2013-10-31 06:50:00,40.5,39.9,29.53,SSW,202,0.0,4.0,98,0.00,,,-99.99,Weather View 32 v70,2013-10-31 11:50:00,
2013-10-31 06:55:00,40.5,39.9,29.53,SSW,203,0.0,4.0,98,0.00,,,-99.99,Weather View 32 v70,2013-10-31 11:55:00,
2013-10-31 07:05:00,40.3,39.8,29.53,SSW,202,0.0,3.0,98,0.00,,,-99.99,Weather View 32 v70,2013-10-31 12:05:00,
2013-10-31 07:10:00,40.3,39.8,29.53,SSW,202,0.0,3.0,98,0.00,,,-99.99,Weather View 32 v70,2013-10-31 12:10:00,
2013-10-31 07:15:00,40.5,39.9,29.53,SSW,202,0.0,3.0,98,0.00,,,-99.99,Weather View 32 v70,2013-10-31 12:15:00,
2013-10-31 07:20:00,40.5,39.9,29.53,SSW,202,0.0,3.0,98,0.00,,,-99.99,Weather View 32 v70,2013-10-31 12:20:00,
2013-10-31 07:29:00,40.5,39.9,29.53,SSW,202,0.0,3.0,98,0.00,,,-99.99,Weather View 32 v70,2013-10-31 12:29:00,
2013-10-31 07:35:00,40.5,39.9,29.53,SSW,203,0.0,3.0,98,0.00,,,-99.99,Weather View 32 v70,2013-10-31 12:35:00,
2013-10-31 07:40:00,40.5,39.9,29.53,SSW,202,0.0,3.0,98,0.00,,,-99.99,Weather View 32 v70,2013-10-31 12:40:00,
2013-10-31 07:45:00,40.5,39.9,29.53,SSW,203,0.0,3.0,98,0.00,,,-99.99,Weather View 32 v70,2013-10-31 12:45:00,
2013-10-31 07:55:00,40.5,39.9,29.53,WSW,255,0.0,4.0,98,0.00,,,-99.99,Weather View 32 v70,2013-10-31 12:55:00,
2013-10-31 08:00:00,40.5,39.9,29.53,SW,221,0.0,4.0,98,0.00,,,-99.99,Weather View 32 v70,2013-10-31 13:00:00,
2013-10-31 08:05:00,40.5,39.9,29.53,SW,221,0.0,4.0,98,0.00,,,-99.99,Weather View 32 v70,2013-10-31 13:05:00,
2013-10-31 08:10:00,40.5,39.9,29.53,SSW,200,2.0,4.0,98,0.00,,,-99.99,Weather View 32 v70,2013-10-31 13:10:00,
2013-10-31 08:15:00,40.5,39.9,29.53,SSW,199,0.0,4.0,98,0.00,,,-99.99,Weather View 32 v70,2013-10-31 13:15:00,
2013-10-31 08:25:00,40.5,39.9,29.53,SSW,199,0.0,4.0,98,0.00,,,-99.99,Weather View 32 v70,2013-10-31 13:25:00,
2013-10-31 08:30:00,40.5,39.9,29.53,SSW,199,0.0,4.0,98,0.00,,,-99.99,Weather View 32 v70,2013-10-31 13:30:00,
2013-10-31 08:35:00,40.6,40.1,29.53,SSE,167,0.0,4.0,98,0.00,,,-99.99,Weather View 32 v70,2013-10-31 13:35:00,
2013-10-31 08:45:00,40.6,40.1,29.53,South,171,0.0,4.0,98,0.00,,,-99.99,Weather View 32 v70,2013-10-31 13:45:00,
2013-10-31 08:50:00,40.6,40.1,29.53,South,171,2.0,4.0,98,0.00,,,-99.99,Weather View 32 v70,2013-10-31 13:50:00,
2013-10-31 08:55:00,40.6,40.1,29.53,South,170,0.0,4.0,98,0.00,,,-99.99,Weather View 32 v70,2013-10-31 13:55:00,
2013-10-31 09:01:00,40.8,40.3,29.53,South,171,0.0,4.0,98,0.00,,,-99.99,Weather View 32 v70,2013-10-31 14:01:00,
2013-10-31 09:10:00,40.8,40.3,29.53,South,170,0.0,4.0,98,0.00,,,-99.99,Weather View 32 v70,2013-10-31 14:10:00,
2013-10-31 09:15:00,40.8,40.3,29.53,South,171,3.0,4.0,98,0.00,,,-99.99,Weather View 32 v70,2013-10-31 14:15:00,
2013-10-31 09:20:00,40.8,40.3,29.53,South,170,0.0,5.0,98,0.00,,,-99.99,Weather View 32 v70,2013-10-31 14:20:00,
2013-10-31 09:25:00,40.8,40.3,29.53,South,170,4.0,5.0,98,0.00,,,-99.99,Weather View 32 v70,2013-10-31 14:25:00,
2013-10-31 09:31:00,41.0,40.5,29.53,South,169,0.0,5.0,98,0.00,,,-99.99,Weather View 32 v70,2013-10-31 14:31:00,
2013-10-31 09:40:00,41.0,40.5,29.53,South,169,0.0,5.0,98,0.00,,,-99.99,Weather View 32 v70,2013-10-31 14:40:00,
2013-10-31 09:45:00,41.0,40.5,29.53,South,169,0.0,5.0,98,0.00,,,-99.99,Weather View 32 v70,2013-10-31 14:45:00,
2013-10-31 09:50:00,41.2,40.7,29.53,South,169,0.0,5.0,98,0.00,,,-99.99,Weather View 32 v70,2013-10-31 14:50:00,
2013-10-31 10:00:00,41.2,40.7,29.53,SSE,167,0.0,5.0,98,0.00,,,-99.99,Weather View 32 v70,2013-10-31 15:00:00,
2013-10-31 10:05:00,41.2,40.7,29.53,SSE,167,0.0,5.0,98,0.00,,,-99.99,Weather View 32 v70,2013-10-31 15:05:00,
2013-10-31 10:10:00,41.4,40.8,29.53,SSE,168,4.0,5.0,98,0.00,,,-99.99,Weather View 32 v70,2013-10-31 15:10:00,
2013-10-31 10:20:00,41.5,41.0,29.53,SSE,164,0.0,5.0,98,0.00,,,-99.99,Weather View 32 v70,2013-10-31 15:20:00,
2013-10-31 10:25:00,41.5,41.0,29.53,SSE,164,3.0,5.0,98,0.00,,,-99.99,Weather View 32 v70,2013-10-31 15:25:00,
2013-10-31 10:30:00,41.7,41.2,29.53,SSE,165,0.0,5.0,98,0.00,,,-99.99,Weather View 32 v70,2013-10-31 15:30:00,
2013-10-31 10:35:00,41.7,41.2,29.53,SSE,164,0.0,5.0,98,0.00,,,-99.99,Weather View 32 v70,2013-10-31 15:35:00,
2013-10-31 10:40:00,41.7,41.2,29.53,SSE,164,0.0,5.0,98,0.00,,,-99.99,Weather View 32 v70,2013-10-31 15:40:00,
2013-10-31 10:50:00,41.9,41.4,29.53,SSE,165,0.0,5.0,98,0.00,,,-99.99,Weather View 32 v70,2013-10-31 15:50:00,
2013-10-31 10:55:00,42.1,41.6,29.53,SSE,164,0.0,5.0,98,0.00,,,-99.99,Weather View 32 v70,2013-10-31 15:55:00,
2013-10-31 11:00:00,42.1,41.6,29.50,SSE,164,0.0,5.0,98,0.00,,,-99.99,Weather View 32 v70,2013-10-31 16:00:00,
2013-10-31 11:10:00,42.1,41.6,29.50,SSE,164,2.0,5.0,98,0.00,,,-99.99,Weather View 32 v70,2013-10-31 16:10:00,
2013-10-31 11:15:00,42.1,41.6,29.50,SSE,164,0.0,4.0,98,0.00,,,-99.99,Weather View 32 v70,2013-10-31 16:15:00,
2013-10-31 11:20:00,42.1,41.6,29.50,SSE,163,3.0,5.0,98,0.00,,,-99.99,Weather View 32 v70,2013-10-31 16:20:00,
2013-10-31 11:25:00,42.1,41.6,29.50,WNW,288,4.0,5.0,98,0.00,,,-99.99,Weather View 32 v70,2013-10-31 16:25:00,
2013-10-31 11:32:00,42.1,41.6,29.50,WNW,287,0.0,5.0,98,0.00,,,-99.99,Weather View 32 v70,2013-10-31 16:32:00,
2013-10-31 11:40:00,42.4,41.9,29.50,WNW,286,0.0,5.0,98,0.00,,,-99.99,Weather View 32 v70,2013-10-31 16:40:00,
2013-10-31 11:45:00,42.6,42.1,29.50,WNW,288,4.0,5.0,98,0.00,,,-99.99,Weather View 32 v70,2013-10-31 16:45:00,
2013-10-31 11:50:00,42.8,42.0,29.50,West,281,3.0,6.0,97,0.00,,,-99.99,Weather View 32 v70,2013-10-31 16:50:00,
2013-10-31 11:55:00,42.8,42.0,29.50,West,281,4.0,6.0,97,0.00,,,-99.99,Weather View 32 v70,2013-10-31 16:55:00,
2013-10-31 12:00:00,43.0,42.2,29.50,West,280,3.0,6.0,97,0.00,,,-99.99,Weather View 32 v70,2013-10-31 17:00:00,
2013-10-31 12:10:00,43.3,42.8,29.50,WNW,288,3.0,6.0,98,0.00,,,-99.99,Weather View 32 v70,2013-10-31 17:10:00,
2013-10-31 12:15:00,43.5,43.0,29.50,West,277,2.0,6.0,98,0.00,,,-99.99,Weather View 32 v70,2013-10-31 17:15:00,
2013-10-31 12:20:00,43.7,43.2,29.50,WSW,252,0.0,6.0,98,0.00,,,-99.99,Weather View 32 v70,2013-10-31 17:20:00,
2013-10-31 12:25:00,44.1,43.5,29.50,WSW,258,3.0,6.0,98,0.00,,,-99.99,Weather View 32 v70,2013-10-31 17:25:00,
2013-10-31 12:32:00,44.2,43.7,29.47,West,270,0.0,6.0,98,0.00,,,-99.99,Weather View 32 v70,2013-10-31 17:32:00,
2013-10-31 12:40:00,44.6,43.8,29.47,West,274,3.0,6.0,97,0.00,,,-99.99,Weather View 32 v70,2013-10-31 17:40:00,
2013-10-31 12:45:00,44.6,43.8,29.47,West,269,0.0,6.0,97,0.00,,,-99.99,Weather View 32 v70,2013-10-31 17:45:00,
2013-10-31 12:50:00,44.8,44.0,29.47,West,268,0.0,5.0,97,0.00,,,-99.99,Weather View 32 v70,2013-10-31 17:50:00,
2013-10-31 12:55:00,45.1,44.3,29.47,WNW,285,3.0,5.0,97,0.00,,,-99.99,Weather View 32 v70,2013-10-31 17:55:00,
2013-10-31 13:00:00,45.1,44.6,29.47,West,277,3.0,5.0,98,0.00,,,-99.99,Weather View 32 v70,2013-10-31 18:00:00,
2013-10-31 13:10:00,45.1,44.3,29.47,West,275,4.0,5.0,97,0.00,,,-99.99,Weather View 32 v70,2013-10-31 18:10:00,
2013-10-31 13:15:00,45.1,44.3,29.47,West,270,4.0,5.0,97,0.00,,,-99.99,Weather View 32 v70,2013-10-31 18:15:00,
2013-10-31 13:20:00,45.1,44.3,29.47,West,274,3.0,5.0,97,0.00,,,-99.99,Weather View 32 v70,2013-10-31 18:20:00,
2013-10-31 13:30:00,45.3,44.5,29.47,West,280,3.0,5.0,97,0.00,,,-99.99,Weather View 32 v70,2013-10-31 18:30:00,
2013-10-31 13:35:00,45.3,44.5,29.47,West,273,0.0,5.0,97,0.00,,,-99.99,Weather View 32 v70,2013-10-31 18:35:00,
2013-10-31 13:40:00,45.7,44.9,29.47,West,271,4.0,5.0,97,0.00,,,-99.99,Weather View 32 v70,2013-10-31 18:40:00,
2013-10-31 13:45:00,45.9,45.3,29.44,WNW,288,3.0,5.0,98,0.00,,,-99.99,Weather View 32 v70,2013-10-31 18:45:00,
2013-10-31 13:55:00,46.0,45.5,29.44,WNW,301,0.0,5.0,98,0.00,,,-99.99,Weather View 32 v70,2013-10-31 18:55:00,
2013-10-31 14:00:00,46.2,45.7,29.44,West,270,3.0,5.0,98,0.00,,,-99.99,Weather View 32 v70,2013-10-31 19:00:00,
2013-10-31 14:05:00,46.4,45.6,29.44,West,265,0.0,5.0,97,0.00,,,-99.99,Weather View 32 v70,2013-10-31 19:05:00,
2013-10-31 14:10:00,46.6,45.8,29.44,West,277,3.0,5.0,97,0.00,,,-99.99,Weather View 32 v70,2013-10-31 19:10:00,
2013-10-31 14:15:00,46.6,45.8,29.44,West,261,0.0,5.0,97,0.00,,,-99.99,Weather View 32 v70,2013-10-31 19:15:00,
2013-10-31 14:25:00,46.9,46.1,29.44,West,278,3.0,5.0,97,0.00,,,-99.99,Weather View 32 v70,2013-10-31 19:25:00,
2013-10-31 14:30:00,46.9,46.1,29.44,West,277,2.0,5.0,97,0.00,,,-99.99,Weather View 32 v70,2013-10-31 19:30:00,
2013-10-31 14:35:00,47.1,46.3,29.44,West,277,0.0,5.0,97,0.00,,,-99.99,Weather View 32 v70,2013-10-31 19:35:00,
2013-10-31 14:40:00,47.1,46.3,29.44,West,277,0.0,5.0,97,0.00,,,-99.99,Weather View 32 v70,2013-10-31 19:40:00,
2013-10-31 14:45:00,47.1,46.3,29.44,West,277,5.0,5.0,97,0.00,,,-99.99,Weather View 32 v70,2013-10-31 19:45:00,
2013-10-31 14:55:00,47.1,46.3,29.44,NW,313,3.0,5.0,97,0.00,,,-99.99,Weather View 32 v70,2013-10-31 19:55:00,
2013-10-31 15:01:00,47.1,46.3,29.44,NW,304,3.0,5.0,97,0.00,,,-99.99,Weather View 32 v70,2013-10-31 20:01:00,
2013-10-31 15:10:00,46.9,46.1,29.44,WNW,295,2.0,5.0,97,0.00,,,-99.99,Weather View 32 v70,2013-10-31 20:10:00,
2013-10-31 15:20:00,47.1,46.0,29.44,WNW,295,4.0,5.0,96,0.00,,,-99.99,Weather View 32 v70,2013-10-31 20:20:00,
2013-10-31 15:25:00,47.1,46.0,29.44,WNW,295,0.0,5.0,96,0.00,,,-99.99,Weather View 32 v70,2013-10-31 20:25:00,
2013-10-31 15:34:00,47.1,46.0,29.41,WNW,282,2.0,5.0,96,0.00,,,-99.99,Weather View 32 v70,2013-10-31 20:34:00,
2013-10-31 15:40:00,47.3,46.2,29.41,West,277,3.0,5.0,96,0.00,,,-99.99,Weather View 32 v70,2013-10-31 20:40:00,
2013-10-31 15:45:00,47.3,46.2,29.41,West,277,4.0,5.0,96,0.00,,,-99.99,Weather View 32 v70,2013-10-31 20:45:00,
2013-10-31 15:50:00,47.3,45.9,29.41,West,277,2.0,5.0,95,0.00,,,-99.99,Weather View 32 v70,2013-10-31 20:50:00,
2013-10-31 15:55:00,47.1,45.8,29.41,West,277,0.0,5.0,95,0.00,,,-99.99,Weather View 32 v70,2013-10-31 20:55:00,
2013-10-31 16:00:00,47.1,45.8,29.41,West,277,3.0,4.0,95,0.00,,,-99.99,Weather View 32 v70,2013-10-31 21:00:00,
2013-10-31 16:10:00,46.9,45.3,29.41,West,277,0.0,4.0,94,0.00,,,-99.99,Weather View 32 v70,2013-10-31 21:10:00,
2013-10-31 16:15:00,46.9,45.3,29.41,West,277,0.0,4.0,94,0.00,,,-99.99,Weather View 32 v70,2013-10-31 21:15:00,
2013-10-31 16:20:00,46.9,45.0,29.41,West,277,3.0,5.0,93,0.00,,,-99.99,Weather View 32 v70,2013-10-31 21:20:00,
2013-10-31 16:25:00,46.9,45.0,29.41,West,277,3.0,5.0,93,0.00,,,-99.99,Weather View 32 v70,2013-10-31 21:25:00,
2013-10-31 16:30:00,46.9,45.0,29.44,West,277,0.0,5.0,93,0.00,,,-99.99,Weather View 32 v70,2013-10-31 21:30:00,
2013-10-31 16:40:00,46.8,44.3,29.44,NW,305,0.0,5.0,91,0.00,,,-99.99,Weather View 32 v70,2013-10-31 21:40:00,
2013-10-31 16:45:00,46.8,44.3,29.44,NW,306,3.0,5.0,91,0.00,,,-99.99,Weather View 32 v70,2013-10-31 21:45:00,
2013-10-31 16:50:00,46.6,43.8,29.44,NW,305,0.0,5.0,90,0.00,,,-99.99,Weather View 32 v70,2013-10-31 21:50:00,
2013-10-31 16:55:00,46.4,43.3,29.44,NW,306,0.0,5.0,89,0.00,,,-99.99,Weather View 32 v70,2013-10-31 21:55:00,
2013-10-31 17:00:00,46.4,43.0,29.44,NW,306,0.0,5.0,88,0.00,,,-99.99,Weather View 32 v70,2013-10-31 22:00:00,
2013-10-31 17:10:00,46.2,42.6,29.44,NW,312,0.0,5.0,87,0.00,,,-99.99,Weather View 32 v70,2013-10-31 22:10:00,
2013-10-31 17:15:00,46.0,42.4,29.44,NW,312,3.0,5.0,87,0.00,,,-99.99,Weather View 32 v70,2013-10-31 22:15:00,
2013-10-31 17:25:00,46.2,42.3,29.44,NW,312,0.0,4.0,86,0.00,,,-99.99,Weather View 32 v70,2013-10-31 22:25:00,
2013-10-31 17:30:00,46.2,42.0,29.44,NW,312,0.0,4.0,85,0.00,,,-99.99,Weather View 32 v70,2013-10-31 22:30:00,
2013-10-31 17:35:00,46.2,42.0,29.44,NW,311,3.0,4.0,85,0.00,,,-99.99,Weather View 32 v70,2013-10-31 22:35:00,
2013-10-31 17:40:00,46.2,42.0,29.44,NW,311,2.0,4.0,85,0.00,,,-99.99,Weather View 32 v70,2013-10-31 22:40:00,
2013-10-31 17:50:00,46.2,41.6,29.44,NW,311,0.0,4.0,84,0.00,,,-99.99,Weather View 32 v70,2013-10-31 22:50:00,
2013-10-31 17:55:00,46.0,41.5,29.44,NW,311,0.0,4.0,84,0.00,,,-99.99,Weather View 32 v70,2013-10-31 22:55:00,
2013-10-31 18:00:00,46.0,41.2,29.44,NW,311,0.0,4.0,83,0.00,,,-99.99,Weather View 32 v70,2013-10-31 23:00:00,
2013-10-31 18:05:00,45.9,41.0,29.44,NW,311,0.0,4.0,83,0.00,,,-99.99,Weather View 32 v70,2013-10-31 23:05:00,
2013-10-31 18:10:00,45.9,41.0,29.44,NW,311,0.0,4.0,83,0.00,,,-99.99,Weather View 32 v70,2013-10-31 23:10:00,
2013-10-31 18:20:00,45.5,40.3,29.44,NW,311,0.0,3.0,82,0.00,,,-99.99,Weather View 32 v70,2013-10-31 23:20:00,
2013-10-31 18:30:00,45.3,39.5,29.44,NW,311,0.0,3.0,80,0.00,,,-99.99,Weather View 32 v70,2013-10-31 23:30:00,
2013-10-31 18:36:00,45.1,39.3,29.44,NW,311,0.0,3.0,80,0.00,,,-99.99,Weather View 32 v70,2013-10-31 23:36:00,
2013-10-31 18:45:00,45.0,38.5,29.44,NW,311,0.0,0.0,78,0.00,,,-99.99,Weather View 32 v70,2013-10-31 23:45:00,
2013-10-31 18:55:00,44.8,37.7,29.44,NW,311,0.0,0.0,76,0.00,,,-99.99,Weather View 32 v70,2013-10-31 23:55:00,
2013-10-31 19:05:00,44.6,37.2,29.44,NW,311,0.0,0.0,75,0.00,,,-99.99,Weather View 32 v70,2013-11-01 00:05:00,
2013-10-31 19:15:00,44.2,36.5,29.41,NW,311,0.0,0.0,74,0.00,,,-99.99,Weather View 32 v70,2013-11-01 00:15:00,
2013-10-31 19:25:00,43.7,35.6,29.41,NW,311,0.0,0.0,73,0.00,,,-99.99,Weather View 32 v70,2013-11-01 00:25:00,
2013-10-31 19:35:00,43.3,35.3,29.44,NW,311,0.0,0.0,73,0.00,,,-99.99,Weather View 32 v70,2013-11-01 00:35:00,
2013-10-31 19:40:00,43.3,35.3,29.44,NW,311,2.0,3.0,73,0.00,,,-99.99,Weather View 32 v70,2013-11-01 00:40:00,
2013-10-31 19:45:00,43.3,35.3,29.44,WNW,291,0.0,4.0,73,0.00,,,-99.99,Weather View 32 v70,2013-11-01 00:45:00,
2013-10-31 19:55:00,43.3,35.3,29.44,SE,143,0.0,4.0,73,0.00,,,-99.99,Weather View 32 v70,2013-11-01 00:55:00,
2013-10-31 20:05:00,43.2,34.7,29.44,WSW,249,0.0,4.0,72,0.00,,,-99.99,Weather View 32 v70,2013-11-01 01:05:00,
2013-10-31 20:10:00,43.2,34.7,29.44,South,171,0.0,4.0,72,0.00,,,-99.99,Weather View 32 v70,2013-11-01 01:10:00,
2013-10-31 20:15:00,43.0,34.6,29.44,WNW,296,5.0,5.0,72,0.00,,,-99.99,Weather View 32 v70,2013-11-01 01:15:00,
2013-10-31 20:20:00,42.8,34.4,29.44,West,270,3.0,5.0,72,0.00,,,-99.99,Weather View 32 v70,2013-11-01 01:20:00,
2013-10-31 20:30:00,42.3,33.9,29.44,WNW,297,3.0,5.0,72,0.00,,,-99.99,Weather View 32 v70,2013-11-01 01:30:00,
2013-10-31 20:37:00,42.3,34.2,29.44,SSW,210,3.0,5.0,73,0.00,,,-99.99,Weather View 32 v70,2013-11-01 01:37:00,
2013-10-31 20:45:00,42.1,34.0,29.44,NW,307,4.0,5.0,73,0.00,,,-99.99,Weather View 32 v70,2013-11-01 01:45:00,
2013-10-31 20:55:00,41.9,34.2,29.44,WNW,287,4.0,6.0,74,0.00,,,-99.99,Weather View 32 v70,2013-11-01 01:55:00,
2013-10-31 21:00:00,41.9,34.2,29.44,WNW,289,4.0,6.0,74,0.00,,,-99.99,Weather View 32 v70,2013-11-01 02:00:00,
2013-10-31 21:10:00,41.7,34.0,29.44,NW,318,5.0,6.0,74,0.00,,,-99.99,Weather View 32 v70,2013-11-01 02:10:00,
2013-10-31 21:20:00,41.9,34.5,29.44,West,276,3.0,6.0,75,0.00,,,-99.99,Weather View 32 v70,2013-11-01 02:20:00,
2013-10-31 21:25:00,41.9,34.5,29.44,WNW,290,4.0,6.0,75,0.00,,,-99.99,Weather View 32 v70,2013-11-01 02:25:00,
2013-10-31 21:35:00,41.7,34.4,29.44,WNW,286,4.0,6.0,75,0.00,,,-99.99,Weather View 32 v70,2013-11-01 02:35:00,
2013-10-31 21:45:00,41.7,34.4,29.44,WNW,290,4.0,6.0,75,0.00,,,-99.99,Weather View 32 v70,2013-11-01 02:45:00,
2013-10-31 21:55:00,41.5,34.2,29.44,West,272,3.0,6.0,75,0.00,,,-99.99,Weather View 32 v70,2013-11-01 02:55:00,
2013-10-31 22:05:00,41.7,34.4,29.44,West,280,3.0,6.0,75,0.00,,,-99.99,Weather View 32 v70,2013-11-01 03:05:00,
2013-10-31 22:15:00,41.7,34.0,29.44,West,264,4.0,6.0,74,0.00,,,-99.99,Weather View 32 v70,2013-11-01 03:15:00,
2013-10-31 22:25:00,41.5,33.9,29.44,West,266,3.0,6.0,74,0.00,,,-99.99,Weather View 32 v70,2013-11-01 03:25:00,
2013-10-31 22:35:00,41.4,33.7,29.44,West,261,4.0,6.0,74,0.00,,,-99.99,Weather View 32 v70,2013-11-01 03:35:00,
2013-10-31 22:40:00,41.2,33.5,29.44,WSW,255,3.0,6.0,74,0.00,,,-99.99,Weather View 32 v70,2013-11-01 03:40:00,
2013-10-31 22:45:00,41.2,33.5,29.47,West,270,3.0,6.0,74,0.00,,,-99.99,Weather View 32 v70,2013-11-01 03:45:00,
2013-10-31 22:55:00,41.0,33.3,29.47,West,272,3.0,6.0,74,0.00,,,-99.99,Weather View 32 v70,2013-11-01 03:55:00,
2013-10-31 23:00:00,40.8,33.5,29.47,WNW,299,4.0,6.0,75,0.00,,,-99.99,Weather View 32 v70,2013-11-01 04:00:00,
2013-10-31 23:05:00,40.6,33.3,29.47,WNW,292,4.0,6.0,75,0.00,,,-99.99,Weather View 32 v70,2013-11-01 04:05:00,
2013-10-31 23:10:00,40.5,33.2,29.47,WNW,289,3.0,6.0,75,0.00,,,-99.99,Weather View 32 v70,2013-11-01 04:10:00,
2013-10-31 23:15:00,40.3,33.0,29.47,WNW,302,3.0,6.0,75,0.00,,,-99.99,Weather View 32 v70,2013-11-01 04:15:00,
2013-10-31 23:25:00,40.1,32.8,29.47,West,272,4.0,6.0,75,0.00,,,-99.99,Weather View 32 v70,2013-11-01 04:25:00,
2013-10-31 23:35:00,39.9,32.6,29.47,WNW,288,3.0,6.0,75,0.00,,,-99.99,Weather View 32 v70,2013-11-01 04:35:00,
2013-10-31 23:39:00,39.9,32.6,29.47,WNW,288,3.0,6.0,75,0.00,,,-99.99,Weather View 32 v70,2013-11-01 04:39:00,
2013-10-31 23:45:00,39.9,32.6,29.47,WNW,282,3.0,5.0,75,0.00,,,-99.99,Weather View 32 v70,2013-11-01 04:45:00,
2013-10-31 23:50:00,39.9,32.6,29.47,West,273,3.0,5.0,75,0.00,,,-99.99,Weather View 32 v70,2013-11-01 04:50:00,
2013-10-31 23:55:00,39.7,32.8,29.47,West,273,3.0,5.0,76,0.00,,,-99.99,Weather View 32 v70,2013-11-01 04:55:00,